Logo AVAMET
Benvolgut visitant, si us plau, ingressa Recuperar contrasenya

Salem

Dades diàries. Acumulats / Últims 30 dies disponibles

Data Temperatura (°C) Humitat rel. (%) Pressió rel. (hPa) Vent (km/h) Precipitació
Mínima Mitjana Màxima Amplitud
tèrmica
Mínima Mitjana Màxima Mínima Mitjana Màxima Predom. Mitjana Ràfega
màxima
Total
(mm)
Índex-n
Mínima Mitjana Màxima Mínima Mitjana Màxima n
0 a 1
P0 max
mm 5'
Dades mensuals acumulades fins l'últim dia disponible
12/2019 6,4 8,1 9,4 10,4 10,5 12,5 16,7 10,3 52 88 97 1.004 1.014 1.025   2,8 41,8 206,4
Dades anuals acumulades fins l'últim dia disponible
2019 0,2 13,5 25,2 17,9 9,6 22,9 40,2 40,0 15 65 97 994 1.016 1.035   4,6 74,0 1.154,2
Últims 30 dies disponibles
06-12-2019 9,4     10,6     13,3 3,9 84 93 96 1.022 1.023 1.025 ESE 0,5 8,0 0,0
05-12-2019 7,8     10,2     11,9 4,1 88 92 96 1.010 1.017 1.022 NW 1,3 16,1 4,0 0,61 1,60
04-12-2019 7,2     9,4     10,5 3,3 88 94 97 1.004 1.007 1.010 WNW 3,5 41,8 74,0 0,29 6,30
03-12-2019 6,4     8,8     10,6 4,2 86 92 96 1.011 1.015 1.017 ENE 6,1 40,2 69,2 0,48 5,00
02-12-2019 8,8     10,1     11,9 3,1 79 92 95 1.011 1.014 1.017 ENE 2,7 33,8 59,2 0,32 7,60
01-12-2019 8,8     13,4     16,7 7,9 52 66 79 1.010 1.012 1.014 W 2,6 27,4 0,0
30-11-2019 12,6     15,7     22,6 10,0 42 69 82 1.014 1.018 1.021 S 2,3 20,9 0,0
29-11-2019 13,9     16,3     19,3 5,4 61 67 77 1.017 1.019 1.021 W 5,5 33,8 0,0
28-11-2019 12,7     14,2     16,8 4,1 59 65 70 1.014 1.016 1.018 W 8,2 33,8 0,0
27-11-2019 14,1     16,4     19,1 5,0 48 62 74 1.009 1.011 1.014 W 8,9 48,3 0,2
26-11-2019 14,8     16,7     19,8 5,0 59 67 75 1.010 1.013 1.015 WSW 7,6 30,6 0,0
25-11-2019 11,6     14,9     17,3 5,7 64 70 75 1.013 1.014 1.016 W 7,2 33,8 0,0
24-11-2019 9,8     11,8     15,1 5,3 48 57 63 1.009 1.012 1.015 W 7,7 35,4 0,0
23-11-2019 9,6     12,4     15,1 5,5 50 61 73 994 1.000 1.008 WNW 11,4 46,7 1,6
22-11-2019 8,8     12,7     16,1 7,3 67 79 86 995 1.002 1.008 S 12,4 59,5 4,0
21-11-2019 7,3     11,7     14,7 7,4 61 73 91 1.008 1.009 1.011 WSW 3,2 25,7 0,2
20-11-2019 6,9     10,3     14,8 7,9 46 66 91 1.009 1.012 1.015 ESE 3,1 24,1 2,8
19-11-2019 4,6     8,7     14,2 9,6 45 61 72 1.015 1.016 1.018 ESE 2,3 22,5 0,0
18-11-2019 7,0     9,8     13,5 6,5 58 71 88 1.007 1.011 1.016 ESE 1,3 16,1 3,8
17-11-2019 7,3     10,3     14,0 6,7 49 60 85 1.010 1.013 1.016 W 7,6 37,0 4,2
16-11-2019 4,9     8,8     13,1 8,2 45 59 73 1.008 1.012 1.016 W 2,6 25,7 0,0
15-11-2019 7,0     9,5     12,6 5,6 48 60 67 1.001 1.004 1.007 W 6,4 41,8 0,0
14-11-2019 6,9     12,8     16,8 9,9 41 61 84 1.000 1.003 1.010 W 10,1 46,7 1,0
13-11-2019 11,9     14,1     17,1 5,2 54 70 88 1.006 1.008 1.012 W 6,3 45,1 3,0
12-11-2019 7,6     12,2     16,8 9,2 41 52 63 1.010 1.012 1.014 W 3,5 33,8 0,0
11-11-2019 6,9     11,1     14,6 7,7 48 57 66 1.011 1.014 1.015 WNW 4,2 25,7 0,0
10-11-2019 8,3     11,1     13,4 5,1 48 62 83 1.011 1.013 1.014 WNW 9,2 43,5 1,8
09-11-2019 9,1     12,4     15,7 6,6 42 53 74 1.014 1.018 1.020 W 7,2 40,2 1,6
08-11-2019 8,7     11,4     13,8 5,1 44 53 66 1.010 1.013 1.018 WNW 9,8 45,1 0,2
07-11-2019 12,3     14,8     18,4 6,1 31 58 69 1.008 1.010 1.014 W 9,0 37,0 0,0
Últims 13 mesos disponibles
11/2019 4,6 10,7 19,3 13,7 12,6 17,1 24,3 19,7 52 62 79 1.000 1.011 1.019 W 7,0 59,5 26,8
10/2019 10,4 15,3 18,6 19,2 13,9 24,1 31,8 21,4 43 68 90 1.008 1.016 1.022 ESE 2,8 45,1 53,0
09/2019 12,6 18,5 22,1 22,0 18,0 26,1 33,2 20,6 47 77 96 1.010 1.017 1.024 ENE 3,5 72,4 336,2
08/2019 17,2 20,8 25,2 25,8 25,8 31,8 40,2 23,0 31 68 85 1.010 1.015 1.020 ENE 4,4 40,2 49,0
07/2019 19,4 21,1 25,2 26,4 27,2 32,3 38,4 19,0 38 62 80 1.006 1.012 1.015 ENE 5,8 64,4 1,4
06/2019 11,7 16,8 22,7 22,4 19,7 28,6 36,8 25,1 36 60 81 1.008 1.015 1.021 ENE 4,9 53,1 0,2
05/2019 7,4 13,4 19,6 18,2 18,4 24,0 30,2 22,8 51 65 81 1.005 1.015 1.024 ENE 4,5 61,2 11,4
04/2019 7,7 10,5 13,7 14,1 11,3 18,4 27,2 19,5 37 69 95 999 1.013 1.024 W 5,7 64,4 391,8
03/2019 5,2 9,2 16,1 13,8 11,4 19,0 27,1 21,9 33 56 92 1.010 1.022 1.030 ESE 4,1 56,3 69,2
02/2019 2,7 6,8 12,1 11,5 10,7 16,7 23,8 21,1 33 61 86 995 1.025 1.033 SE 4,3 74,0 0,6
01/2019 0,2 6,3 11,1 10,3 9,6 15,0 19,7 19,5 39 57 79 1.003 1.019 1.031 ESE 4,2 56,3 6,6
12/2018 4,7 8,7 12,9 12,7 11,4 17,6 23,8 19,1 42 64 94 1.009 1.025 1.031 ESE 2,7 53,1 31,2
11/2018 6,4 10,7 13,9 13,5 12,3 16,7 23,2 16,8 32 71 96 1.001 1.015 1.023 ESE 4,2 85,3 238,0
Tots els anys disponibles
2018 0,7 13,3 24,8 17,4 5,0 22,3 36,9 36,2 32 70 96 1.000 1.018 1.031 ENE 4,9 85,3 705,0
2017 1,2 8,1 15,4 12,1 9,4 16,9 24,6 23,4 ESE 4,4 90,1
Temperatura (°C)
Humitat relativa (%)
Velocitat del vent i ràfega màxima (km/h)
Direcció del vent (°)
Pressió (hPa)
Precipitació (mm)
Nota sobre les dades: s'avisa a l'usuari de la provisionalitat i no oficialitat d'aquestes dades
Logo AVAMET blanc
Web allotjada a Sollutia
Llicència de Creative CommonsLa web d'AVAMET i els seus continguts estan subjectes a una llicència de
Reconeixement - No Comercial - Compartir igual
Últimes estacions: Aielo de Malferit - Centre (Soci), Faura (Inforatge), Benifairó de les Valls (Inforatge), Xàbia - Les Valls (Soci), Xàbia - Alt de la Granadella (Soci), Villena - Sierra de Salinas (Soci), Sueca - Centre (Inforatge) - - -